EGPFLEIB

Guest
Details From EGPF - Glasgow
To LEIB - Ibiza
Flight Number -
Tags Generated
Created
Modified
Stats Distance 1,047 nm / 1,940 km
Max Altitude 0 ft / 0 m
Waypoints 6
Social Downloads 1
Likes 0
Share VATSIM

Download

Looking for another format? Having issues loading an existing format? Contact us
Advertisement - Login to hide

Notes

Generated

Route

EGPF OF VALAX TBO IBA53 LEIB

ID Type Via Altitude Latitude Longitude Leg Dist Tot Dist Heading (true) Name
O EGPF APT - 0 ft / 0 m 55.87222˚ -4.44472˚ - 0 nm - -
OF NDB - 0 ft / 0 m 51.52185˚ -2.59023˚ 269 nm 269 nm 165° / 167° FILTON NDB
VALAX FIX - 0 ft / 0 m 47.56278˚ -1.11056˚ 244 nm 514 nm 166° / 167° -
TBO VOR - 0 ft / 0 m 43.33222˚ 0.14575˚ 259 nm 773 nm 168° / 169° TARBES VOR
IBA53 FIX - 0 ft / 0 m 39.11647˚ 1.32273˚ 258 nm 1032 nm 168° / 169° -
O LEIB APT - 0 ft / 0 m 38.86694˚ 1.35887˚ 15 nm 1047 nm 174° / 174° -

Altitude Profile

Advertisement - Login to hide

Weather


0- 5 10 15 20 25 30 35+ Temperature / ° C

Clouds and Precipitation
Forecast for 2018-05-22 06:00 UTC. Updated 3 hours ago

Ground ~20,000 ft ~40,000 ft Winds

EGPF

Details ICAO EGPF (GLA)
Name Glasgow
Region United Kingdom
Timezone Europe/London (UTC+1.0)
Stats Elevation 26 ft / 8 m (AMSL)
Location 55.871728° -4.433648°
Runways 1
Magnetic Variation 2.657° W

METAR

EGPF 220820Z AUTO 08012KT 9999 BKN023 12/07 Q1024

Decode

TAF

TAF EGPF 220456Z 2206/2306 08012KT 9999 FEW020 TEMPO 2206/2209 6000 -RADZ BKN012 PROB40 TEMPO 2221/2306 BKN012

Decode

Departure Runways

ID Width Length Bearing (true) Bearing (mag) Surface Threshold Offset Overrun Length
05 151 ft / 46 m 8,721 ft / 2,658 m 46.34° 49.00° Asphalt 0 ft / 0 m 499 ft / 152 m
23 151 ft / 46 m 8,721 ft / 2,658 m 226.37° 229.03° Asphalt 1,004 ft / 306 m 0 ft / 0 m

LEIB

Details ICAO LEIB (IBZ)
Name Ibiza
Region Spain
Timezone Europe/Madrid (UTC+2.0)
Stats Elevation 20 ft / 6 m (AMSL)
Location 38.872871° 1.373045°
Runways 1
Magnetic Variation 0.710° E

METAR

LEIB 220830Z 24009KT 200V260 9999 FEW012 21/16 Q1014 NOSIG

Decode

TAF

TAF LEIB 220800Z 2209/2309 22010KT 9999 FEW020 TX22/2212Z TN15/2306Z BECMG 2218/2221 18004KT

Decode

Destination Runways

ID Width Length Bearing (true) Bearing (mag) Surface Threshold Offset Overrun Length
06 148 ft / 45 m 9,153 ft / 2,790 m 61.85° 61.14° Asphalt 0 ft / 0 m 213 ft / 65 m
24 148 ft / 45 m 9,153 ft / 2,790 m 241.86° 241.15° Asphalt 0 ft / 0 m 197 ft / 60 m

Approach Navaids

Runway Type Ident Frequency Range Bearing (true) Bearing (mag) Slope Elevation
06 Localiser IBI 111.10 MHz 18 nm / 33 km 62.00° 61.29° - 20 ft / 6 m (AMSL)
06 Glidescope IBI 111.10 MHz 10 nm / 19 km 62.00° 61.29° 3.00° 20 ft / 6 m (AMSL)
06 DME IBI 111.10 MHz 18 nm / 33 km - - - 20 ft / 6 m (AMSL)
24 Localiser IBZ 109.50 MHz 18 nm / 33 km 241.81° 241.10° - 15 ft / 5 m (AMSL)
24 Glidescope IBZ 109.50 MHz 10 nm / 19 km 241.86° 241.15° 3.00° 69 ft / 21 m (AMSL)
24 DME IBZ 109.50 MHz 18 nm / 33 km - - - 69 ft / 21 m (AMSL)

Popular Alternatives